logo
Search for airport 
image banner adimage banner adimage banner ad
image banner ad

FAKM - Kimberley

Located in Kimberley, South Africa

ICAO - FAKM, IATA - KIM

Data provided by Airmate  

General information

Coordinates: S28°48'10" E24°45'55"
Elevation is 3950 feet MSL.
Magnetic variation is -22° East
View others Airports in Northern Cape

Operational data

Special qualification required
Current time UTC:
Current local time:
Weather
METAR: FAKM 270300Z 21004KT CAVOK 02/02 Q1027
TAF: TAF FAKM 270000Z 2703/2712 VRB03KT CAVOK TX25/2712Z TN03/2704Z
View NOTAMs / SUP AIP / TFR affecting this airport [VIEW]
Communications frequencies: [VIEW]

Runways:

RWY identifierQFULength (ft)Width (ft)SurfaceLDA (ft)
02360°9841144ASPH9849
20180°9841144ASPH9849
1080°7939140ASPH7995
28260°7939140ASPH7995

Airport contact information

Address: Kimberley South Africa

Other aviation service providers

Flight schools

Kimberley Flying School

Kimberley Flying School

Eagle Flight Academy

Eagle Flight Academy

Satellite view of FAKM